Hollins College, VA (24020)

2:05 AM EDT on July 04, 2015 (GMT -0400)
Cresthill | | Change Station
CLOSE
Current Station
Personal Weather Station
Location: Cave Spring, VA
Elevation: 1180 ft
Nearby Weather Stations

Elev 1180 ft 37.24 °N, 80.02 °W | Updated 10 seconds ago

Overcast
Overcast
67.1 °F
Feels Like 67.1 °F
N
0.0
Wind Variable Wind from NNW
Gusts 0.0 mph

Today
High -- | Low -- °F
--% Chance of Precip.
Yesterday
High -- | Low -- °F
Precip. -- in
6:04 AM 8:44 PM
Waning Gibbous, 94% visible
Pressure 29.93 in
Visibility 5.0 miles
Clouds Overcast 1500 ft
Dew Point 67 °F
Humidity 99%
Rainfall 0.14 in
Snow Depth Not available.
UV 0.0 out of 12
Pollen .50 out of 12
Air Quality Not available.
Flu Activity Not available.
METAR KROA 040554Z 00000KT 5SM BR OVC015 20/19 A2995 RMK AO2 SLP133 60014 T02000194 10200 20200 57006

More Conditions Fewer Conditions

Pressure 29.93 in
Visibility 5.0 miles
Clouds Overcast 1500 ft
Dew Point 67 °F
Humidity 99%
Rainfall 0.14 in
Snow Depth Not available.
UV 0.0 out of 12
Pollen .50 out of 12
Air Quality Not available.
Flu Activity Not available.
METAR KROA 040554Z 00000KT 5SM BR OVC015 20/19 A2995 RMK AO2 SLP133 60014 T02000194 10200 20200 57006

More Conditions Fewer Conditions

10-Day Weather Forecast

×

Almanac

Astronomy

Jul. 04, 2015 Rise Set
Actual Time
Civil Twilight
Nautical Twilight
Astronomical Twilight
Moon
Length of Visible Light
Length of Day
Tomorrow will be .
, % of the Moon is Illuminated

Today's Extremes

State Highs State Lows

Community

WunderPhotos

Upload Photos

1,834,926 photos uploaded!

WunderBlogs® & News

Nearby

Air Quality

  Air Quality AQ Index Pollutant
Not available.

Snow Depth

Station Depth Elevation

Earthquake Activity

City Distance Mag. Time & Date
Minimum magnitude displayed is 2.5.

Coastal Water Temperatures

Place Temperature

Stations

Nearby Weather Stations

Station Location Temp. Windchill Dew Point Humidity Wind Precip. Elev Updated Type